Strona główna
METAR-TAF:

METAR-TAF

Lotnisko :

Port lotniczy Tetuan

Tetuan, Maroko

Szerokość geograficzna: 35-35N, Długość geograficzna: 005-20W, wysokość: 10 m

Aktualna obserwacja pogody

Raport powstał 1 godzina i 7 minut temu, godzina 18:00 UTC
Wiatr 6 kt od wschód, zmienny między północny wschód i wschodnio-południowy wschód
Temperatura 24°C
Wilgotność 74%
Ciśnienie 1008 hPa
Widzialność 10 km lub więcej
Brak chmur poniżej 1500 m i brak chmur cumulonimbus

METAR: GMTN 251800Z 09006KT 040V120 CAVOK 24/19 Q1008 NOSIG

czas: 20:07 (19:07 UTC)


TAF: brakujący

Obserwacja i prognoza pogody dla ponad 4000 lotnisk (raport METAR i TAF).

Dostępne stacje oznaczono żółtymi i czerwonymi punktami na mapie.

Najedź kursorem aby zobaczyć nazwę stacji.

Kliknij aby zobaczyć obserwacje i prognozy pogody.

Aby zmienić mapę: kliknij na zielony przycisk z czarnym krzyżykiem, aby powiększyć; na zielony przycisk z myślnikiem, aby pomniejszyć; na zielone strzałki, aby przejść do map sąsiednich.


METAR-TAF: